Time;durP1;ratioP1;P1;durP2;ratioP2;P2;SDS_P1;SDS_P2;PMS_P1;PMS_P2;Temp;Humidity;BMP_temperature;BMP_pressure;BME280_temperature;BME280_humidity;BME280_pressure;Samples;Min_cycle;Max_cycle;Signal;HPM_P1;HPM_P2
2021/08/08 00:01:54;;;;;;;3.53;0.90;;;16.70;99.90;;;;;;5094473;28;20537;-68
2021/08/08 00:04:22;;;;;;;2.13;0.90;;;16.70;99.90;;;;;;5092972;28;20492;-68
2021/08/08 00:06:49;;;;;;;1.80;0.90;;;16.70;99.50;;;;;;5094347;28;20435;-68
2021/08/08 00:09:17;;;;;;;2.07;1.17;;;16.70;99.80;;;;;;5093755;28;20831;-69
2021/08/08 00:11:45;;;;;;;3.07;1.20;;;16.70;99.40;;;;;;5094291;28;20435;-68
2021/08/08 00:14:12;;;;;;;2.43;1.03;;;16.70;99.70;;;;;;5093553;28;20471;-68
2021/08/08 00:16:39;;;;;;;1.73;0.93;;;16.70;99.90;;;;;;5093551;28;20439;-68
2021/08/08 00:19:06;;;;;;;2.40;0.80;;;16.70;99.50;;;;;;5093451;28;20488;-68
2021/08/08 00:21:34;;;;;;;4.10;1.47;;;16.60;99.20;;;;;;5094108;28;20439;-68
2021/08/08 00:24:01;;;;;;;2.10;0.70;;;16.50;99.40;;;;;;5093213;28;20482;-68
2021/08/08 00:26:29;;;;;;;1.90;0.83;;;16.50;99.50;;;;;;5093605;28;20467;-68
2021/08/08 00:28:57;;;;;;;3.30;1.10;;;16.40;99.90;;;;;;5093328;28;20439;-68
2021/08/08 00:31:24;;;;;;;2.00;0.80;;;16.40;99.90;;;;;;5092948;28;20488;-69
2021/08/08 00:33:51;;;;;;;1.87;0.90;;;16.40;99.90;;;;;;5093636;28;20439;-68
2021/08/08 00:36:19;;;;;;;2.20;1.20;;;16.40;99.90;;;;;;5093352;28;20432;-71
2021/08/08 00:38:46;;;;;;;1.83;0.80;;;16.50;99.90;;;;;;5093656;28;20522;-68
2021/08/08 00:41:13;;;;;;;1.63;0.80;;;16.50;99.90;;;;;;5092943;28;20492;-68
2021/08/08 00:43:42;;;;;;;1.60;0.70;;;16.60;99.90;;;;;;5093453;28;20569;-68
2021/08/08 00:46:09;;;;;;;2.13;0.90;;;16.60;99.90;;;;;;5093054;28;20496;-67
2021/08/08 00:48:36;;;;;;;1.80;0.80;;;16.60;99.80;;;;;;5093002;28;20522;-69
2021/08/08 00:51:03;;;;;;;2.53;0.73;;;16.60;99.60;;;;;;5093048;28;20492;-68
2021/08/08 00:53:31;;;;;;;1.63;0.90;;;16.60;99.80;;;;;;5093365;28;20917;-67
2021/08/08 00:55:58;;;;;;;1.80;0.67;;;16.60;99.90;;;;;;5093111;28;20909;-68
2021/08/08 00:58:27;;;;;;;1.70;0.77;;;16.60;99.80;;;;;;5093386;28;20439;-68
2021/08/08 01:00:59;;;;;;;2.07;1.10;;;16.60;99.90;;;;;;5092624;28;20443;-69
2021/08/08 01:03:27;;;;;;;2.50;1.00;;;16.60;99.70;;;;;;5092628;28;20484;-68
2021/08/08 01:05:59;;;;;;;2.07;0.70;;;16.60;99.80;;;;;;5092036;28;20445;-68
2021/08/08 01:08:29;;;;;;;2.50;1.03;;;16.40;99.90;;;;;;5092872;28;20816;-67
2021/08/08 01:10:57;;;;;;;1.70;0.70;;;16.50;99.90;;;;;;5093303;28;20519;-68
2021/08/08 01:13:26;;;;;;;2.97;1.60;;;16.40;99.90;;;;;;5092382;28;20441;-67
2021/08/08 01:15:53;;;;;;;4.87;1.57;;;16.40;99.90;;;;;;5093065;28;20511;-69
2021/08/08 01:18:22;;;;;;;2.57;1.10;;;16.40;99.90;;;;;;5092404;28;20492;-68
2021/08/08 01:20:51;;;;;;;4.13;2.30;;;16.40;99.90;;;;;;5092566;28;20779;-68
2021/08/08 01:23:20;;;;;;;2.67;1.10;;;16.40;99.90;;;;;;5092410;28;20427;-73
2021/08/08 01:25:49;;;;;;;1.90;1.10;;;16.40;99.90;;;;;;5092706;28;20470;-67
2021/08/08 01:28:17;;;;;;;1.60;0.80;;;16.30;99.90;;;;;;5092423;28;20978;-68
2021/08/08 01:30:44;;;;;;;3.10;1.17;;;16.30;99.90;;;;;;5092208;28;20439;-69
2021/08/08 01:33:12;;;;;;;2.20;1.40;;;16.30;99.90;;;;;;5092340;28;20536;-68
2021/08/08 01:35:39;;;;;;;2.30;0.80;;;16.30;99.90;;;;;;5092056;28;20423;-68
2021/08/08 01:38:08;;;;;;;2.47;0.80;;;16.30;99.90;;;;;;5092589;28;20538;-68
2021/08/08 01:40:38;;;;;;;1.80;0.90;;;16.20;99.90;;;;;;5092620;28;20442;-68
2021/08/08 01:43:10;;;;;;;3.23;0.90;;;16.20;99.90;;;;;;5092370;28;20546;-68
2021/08/08 01:45:41;;;;;;;2.10;0.80;;;16.10;99.90;;;;;;5092229;28;20528;-68
2021/08/08 01:48:11;;;;;;;2.33;0.90;;;16.10;99.90;;;;;;5092282;28;20489;-68
2021/08/08 01:50:39;;;;;;;1.60;0.83;;;16.10;99.90;;;;;;5091776;28;20496;-68
2021/08/08 01:53:08;;;;;;;2.13;0.83;;;16.10;99.90;;;;;;5092093;28;20439;-68
2021/08/08 01:55:35;;;;;;;2.17;1.00;;;16.00;99.90;;;;;;5091963;28;20439;-68
2021/08/08 01:58:07;;;;;;;1.57;0.83;;;16.00;99.90;;;;;;5092516;28;20594;-68
2021/08/08 02:00:34;;;;;;;1.70;0.80;;;15.90;99.90;;;;;;5092205;28;20447;-68
2021/08/08 02:03:02;;;;;;;1.70;1.13;;;15.90;99.90;;;;;;5092301;28;20439;-67
2021/08/08 02:05:30;;;;;;;1.90;1.10;;;15.90;99.90;;;;;;5091674;28;20479;-69
2021/08/08 02:07:58;;;;;;;2.23;0.70;;;16.00;99.90;;;;;;5075995;28;20844;-67
2021/08/08 02:10:25;;;;;;;1.70;0.80;;;16.00;99.90;;;;;;5092488;28;20895;-68
2021/08/08 02:12:52;;;;;;;1.93;0.80;;;15.90;99.90;;;;;;5092366;28;21028;-68
2021/08/08 02:15:21;;;;;;;1.73;0.80;;;16.00;99.90;;;;;;5092152;28;20514;-68
2021/08/08 02:17:48;;;;;;;2.80;1.10;;;16.00;99.90;;;;;;5096050;28;20433;-68
2021/08/08 02:20:17;;;;;;;2.83;1.10;;;16.00;99.90;;;;;;5096358;28;20446;-68
2021/08/08 02:22:45;;;;;;;4.40;1.00;;;16.00;99.90;;;;;;5095870;28;20952;-68
2021/08/08 02:25:12;;;;;;;2.00;0.90;;;16.00;99.90;;;;;;5095350;28;20474;-68
2021/08/08 02:27:40;;;;;;;3.00;1.30;;;16.00;99.90;;;;;;5096018;28;20474;-68
2021/08/08 02:30:09;;;;;;;3.73;1.10;;;15.90;99.90;;;;;;5095654;28;20921;-67
2021/08/08 02:32:38;;;;;;;2.30;0.90;;;15.90;99.90;;;;;;5096215;28;20470;-68
2021/08/08 02:35:06;;;;;;;7.33;1.13;;;16.00;99.90;;;;;;5095754;28;20849;-67
2021/08/08 02:37:34;;;;;;;2.40;0.90;;;16.00;99.90;;;;;;5095892;28;20443;-69
2021/08/08 02:40:01;;;;;;;3.37;1.07;;;16.00;99.90;;;;;;5095234;28;20437;-68
2021/08/08 02:42:28;;;;;;;4.47;0.90;;;16.00;99.90;;;;;;5095764;28;20439;-67
2021/08/08 02:44:55;;;;;;;1.70;0.87;;;16.10;99.90;;;;;;5095920;28;20474;-68
2021/08/08 02:47:22;;;;;;;2.00;0.70;;;16.10;99.90;;;;;;5094997;28;20496;-68
2021/08/08 02:49:51;;;;;;;2.10;1.20;;;16.20;99.90;;;;;;5095594;28;20435;-68
2021/08/08 02:52:18;;;;;;;1.80;0.80;;;16.20;99.90;;;;;;5095139;28;20431;-68
2021/08/08 02:54:45;;;;;;;1.93;1.00;;;16.20;99.90;;;;;;5095074;28;20435;-68
2021/08/08 02:57:12;;;;;;;1.87;0.70;;;16.20;99.90;;;;;;5094715;28;20937;-68
2021/08/08 02:59:40;;;;;;;1.70;0.93;;;16.20;99.90;;;;;;5095522;28;20435;-68
2021/08/08 03:02:07;;;;;;;3.20;0.77;;;16.20;99.90;;;;;;5095389;28;20439;-68
2021/08/08 03:04:34;;;;;;;1.60;0.90;;;16.20;99.90;;;;;;5095207;28;20988;-68
2021/08/08 03:07:03;;;;;;;2.80;1.13;;;16.20;99.90;;;;;;5094959;28;20489;-68
2021/08/08 03:09:31;;;;;;;2.30;1.43;;;16.30;99.90;;;;;;5095404;28;20470;-68
2021/08/08 03:11:58;;;;;;;7.20;2.03;;;16.30;99.90;;;;;;5095035;28;20439;-68
2021/08/08 03:14:25;;;;;;;4.17;3.20;;;16.40;99.90;;;;;;5094395;28;20488;-68
2021/08/08 03:16:53;;;;;;;2.03;1.37;;;16.40;99.90;;;;;;5094786;28;20466;-68
2021/08/08 03:19:20;;;;;;;1.97;0.80;;;16.40;99.90;;;;;;5095136;28;20439;-68
2021/08/08 03:21:47;;;;;;;1.73;0.70;;;16.40;99.90;;;;;;5095041;28;20439;-67
2021/08/08 03:24:15;;;;;;;1.60;0.73;;;16.40;99.90;;;;;;5094774;28;20849;-68
2021/08/08 03:26:42;;;;;;;1.60;0.80;;;16.50;99.90;;;;;;5094042;28;20455;-68
2021/08/08 03:29:10;;;;;;;1.83;1.20;;;16.40;99.90;;;;;;5094035;28;20435;-68
2021/08/08 03:31:37;;;;;;;4.30;1.33;;;16.40;99.90;;;;;;5094806;28;20913;-67
2021/08/08 03:34:05;;;;;;;2.30;0.77;;;16.30;99.90;;;;;;5094374;28;20439;-70
2021/08/08 03:36:32;;;;;;;1.97;0.70;;;16.30;99.90;;;;;;5074631;28;20464;-68
2021/08/08 03:39:01;;;;;;;1.97;0.80;;;16.30;99.90;;;;;;5078174;28;20450;-69
2021/08/08 03:41:29;;;;;;;2.10;1.07;;;16.40;99.90;;;;;;5074471;28;20420;-68
2021/08/08 03:43:56;;;;;;;1.77;0.83;;;16.30;99.90;;;;;;5076958;28;20428;-68
2021/08/08 03:46:23;;;;;;;1.90;0.87;;;16.30;99.90;;;;;;5094082;28;20474;-68
2021/08/08 03:48:50;;;;;;;2.00;1.10;;;16.30;99.90;;;;;;5093782;28;20928;-73
2021/08/08 03:51:17;;;;;;;1.40;0.70;;;16.30;99.90;;;;;;5094474;28;20431;-68
2021/08/08 03:53:45;;;;;;;2.60;0.70;;;16.30;99.90;;;;;;5094109;28;20435;-69
2021/08/08 03:56:12;;;;;;;2.03;0.90;;;16.30;99.90;;;;;;5094422;28;20531;-69
2021/08/08 03:58:40;;;;;;;1.40;0.60;;;16.30;99.90;;;;;;5094495;28;20489;-68
2021/08/08 04:01:07;;;;;;;2.10;0.93;;;16.30;99.90;;;;;;5093699;28;20484;-68
2021/08/08 04:03:35;;;;;;;2.47;0.87;;;16.30;99.90;;;;;;5094202;28;20443;-68
2021/08/08 04:06:03;;;;;;;3.83;0.90;;;16.30;99.90;;;;;;5094304;28;20485;-68
2021/08/08 04:08:31;;;;;;;2.00;0.80;;;16.30;99.90;;;;;;5093591;28;20439;-68
2021/08/08 04:10:58;;;;;;;2.50;1.00;;;16.30;99.90;;;;;;5094248;28;20913;-68
2021/08/08 04:13:25;;;;;;;1.50;0.73;;;16.20;99.90;;;;;;5094000;28;20435;-68
2021/08/08 04:15:54;;;;;;;2.53;0.80;;;16.20;99.90;;;;;;5094333;28;20435;-68
2021/08/08 04:18:21;;;;;;;3.00;0.80;;;16.30;99.90;;;;;;5093553;28;20504;-68
2021/08/08 04:20:48;;;;;;;1.70;0.80;;;16.40;99.90;;;;;;5094158;28;20427;-68
2021/08/08 04:23:16;;;;;;;2.07;0.67;;;16.30;99.90;;;;;;5093967;28;20488;-68
2021/08/08 04:25:44;;;;;;;1.70;0.80;;;16.30;99.90;;;;;;5093829;28;20479;-68
2021/08/08 04:28:11;;;;;;;1.80;0.80;;;16.30;99.90;;;;;;5093715;28;20446;-68
2021/08/08 04:30:38;;;;;;;2.33;0.90;;;16.30;99.90;;;;;;5094042;28;20431;-68
2021/08/08 04:33:07;;;;;;;2.60;1.53;;;16.40;99.90;;;;;;5093509;28;20833;-68
2021/08/08 04:35:37;;;;;;;9.07;0.90;;;16.40;99.90;;;;;;5092827;28;20496;-68
2021/08/08 04:38:04;;;;;;;6.80;0.73;;;16.40;99.90;;;;;;5093729;28;20439;-68
2021/08/08 04:40:32;;;;;;;1.40;0.60;;;16.40;99.90;;;;;;5093514;28;20445;-68
2021/08/08 04:42:59;;;;;;;2.70;0.73;;;16.40;99.90;;;;;;5093814;28;20474;-68
2021/08/08 04:45:26;;;;;;;1.87;0.90;;;16.30;99.90;;;;;;5093192;28;20482;-69
2021/08/08 04:47:54;;;;;;;1.90;1.00;;;16.30;99.90;;;;;;5093799;28;20485;-68
2021/08/08 04:50:22;;;;;;;1.60;0.80;;;16.30;99.90;;;;;;5092635;28;20437;-68
2021/08/08 04:52:49;;;;;;;2.13;0.90;;;16.30;99.90;;;;;;5093597;28;20438;-68
2021/08/08 04:55:18;;;;;;;3.07;1.03;;;16.30;99.60;;;;;;5093340;28;20443;-68
2021/08/08 04:57:45;;;;;;;1.83;0.80;;;16.20;99.80;;;;;;5093624;28;20439;-68
2021/08/08 05:00:13;;;;;;;3.47;0.90;;;16.10;99.90;;;;;;5093166;28;20431;-68
2021/08/08 05:02:44;;;;;;;4.10;0.90;;;16.10;99.60;;;;;;5093133;28;20439;-68
2021/08/08 05:05:12;;;;;;;4.03;1.00;;;16.10;99.90;;;;;;5093026;28;20515;-67
2021/08/08 05:07:41;;;;;;;1.50;0.70;;;16.10;99.90;;;;;;5092886;28;20489;-68
2021/08/08 05:10:09;;;;;;;2.60;0.70;;;16.10;99.90;;;;;;5093157;28;20439;-68
2021/08/08 05:12:37;;;;;;;1.70;0.80;;;16.00;99.90;;;;;;5092899;28;20496;-68
2021/08/08 05:15:04;;;;;;;2.00;0.80;;;16.00;99.90;;;;;;5093158;28;20443;-68
2021/08/08 05:17:31;;;;;;;2.90;0.80;;;16.00;99.90;;;;;;5092536;28;20434;-68
2021/08/08 05:19:59;;;;;;;4.43;1.10;;;16.00;99.90;;;;;;5092781;28;20453;-68
2021/08/08 05:22:26;;;;;;;1.70;0.77;;;16.10;99.90;;;;;;5092194;28;20436;-68
2021/08/08 05:24:54;;;;;;;1.90;0.77;;;16.10;99.80;;;;;;5092741;28;20463;-68
2021/08/08 05:27:21;;;;;;;2.80;0.70;;;16.10;99.90;;;;;;5092790;28;20496;-68
2021/08/08 05:29:48;;;;;;;1.97;1.13;;;16.20;99.90;;;;;;5093154;28;20438;-68
2021/08/08 05:32:16;;;;;;;2.70;1.63;;;16.30;99.90;;;;;;5092702;28;20443;-67
2021/08/08 05:34:43;;;;;;;5.47;2.90;;;16.30;99.90;;;;;;5092948;28;20446;-68
2021/08/08 05:37:10;;;;;;;4.17;2.07;;;16.50;99.90;;;;;;5092728;28;20488;-68
2021/08/08 05:39:37;;;;;;;2.97;1.50;;;16.50;99.90;;;;;;5092267;28;20444;-68
2021/08/08 05:42:06;;;;;;;3.50;1.33;;;16.50;99.70;;;;;;5092884;28;20507;-68
2021/08/08 05:44:37;;;;;;;3.10;1.10;;;16.50;98.60;;;;;;5092569;28;20439;-67
2021/08/08 05:47:05;;;;;;;2.30;1.00;;;16.50;98.40;;;;;;5092866;28;20483;-68
2021/08/08 05:49:33;;;;;;;3.50;1.03;;;16.50;98.30;;;;;;5092040;28;20957;-67
2021/08/08 05:52:01;;;;;;;2.73;1.37;;;16.50;98.70;;;;;;5092378;28;20435;-68
2021/08/08 05:54:28;;;;;;;1.80;1.00;;;16.50;98.90;;;;;;5092243;28;20850;-68
2021/08/08 05:56:56;;;;;;;5.80;1.83;;;16.50;99.00;;;;;;5089454;28;20435;-67
2021/08/08 05:59:24;;;;;;;2.40;1.00;;;16.60;99.20;;;;;;5092392;28;20868;-73
2021/08/08 06:01:52;;;;;;;1.83;1.00;;;16.60;99.20;;;;;;5092819;28;20851;-68
2021/08/08 06:04:19;;;;;;;4.00;1.03;;;16.60;99.20;;;;;;5092503;28;20455;-68
2021/08/08 06:06:46;;;;;;;3.40;1.10;;;16.70;99.50;;;;;;5089289;28;20489;-67
2021/08/08 06:09:13;;;;;;;1.80;1.13;;;16.70;99.20;;;;;;5090437;28;20804;-68
2021/08/08 06:11:41;;;;;;;3.90;1.27;;;16.80;99.30;;;;;;5090330;28;21721;-69
2021/08/08 06:14:08;;;;;;;2.30;1.07;;;16.80;99.50;;;;;;5091059;28;20913;-68
2021/08/08 06:16:36;;;;;;;4.30;1.23;;;16.90;98.90;;;;;;5090915;28;20519;-68
2021/08/08 06:19:04;;;;;;;2.83;1.50;;;16.90;99.00;;;;;;5090929;28;20442;-68
2021/08/08 06:21:31;;;;;;;2.77;1.60;;;16.90;99.20;;;;;;5090236;28;20496;-68
2021/08/08 06:23:58;;;;;;;2.50;1.60;;;16.80;99.40;;;;;;5090709;28;20438;-67
2021/08/08 06:26:25;;;;;;;3.50;1.43;;;16.90;99.80;;;;;;5090674;28;20544;-68
2021/08/08 06:28:54;;;;;;;2.93;1.30;;;17.00;99.90;;;;;;5090230;28;20846;-68
2021/08/08 06:31:22;;;;;;;2.47;1.20;;;17.10;99.70;;;;;;5090453;28;20445;-68
2021/08/08 06:33:51;;;;;;;2.80;1.60;;;17.10;99.20;;;;;;5090786;28;20496;-68
2021/08/08 06:36:18;;;;;;;2.10;1.03;;;17.20;99.00;;;;;;5090864;28;20435;-68
2021/08/08 06:38:45;;;;;;;2.30;1.30;;;17.20;98.80;;;;;;5090559;28;20447;-69
2021/08/08 06:41:12;;;;;;;2.37;1.20;;;17.20;98.00;;;;;;5090283;28;20435;-67
2021/08/08 06:43:39;;;;;;;2.07;1.13;;;17.20;97.90;;;;;;5089983;28;20449;-68
2021/08/08 06:46:06;;;;;;;1.80;0.90;;;17.30;98.00;;;;;;5090687;28;20482;-68
2021/08/08 06:48:34;;;;;;;1.80;1.00;;;17.20;97.40;;;;;;5090196;28;20470;-69
2021/08/08 06:51:03;;;;;;;1.80;1.07;;;17.10;97.40;;;;;;5086225;28;20419;-68
2021/08/08 06:53:32;;;;;;;3.20;1.10;;;17.10;97.80;;;;;;5090847;28;20457;-68
2021/08/08 06:56:00;;;;;;;1.93;0.90;;;17.20;97.90;;;;;;5088202;28;20526;-68
2021/08/08 06:58:27;;;;;;;5.90;1.30;;;17.20;98.00;;;;;;5090211;28;20527;-68
2021/08/08 07:00:54;;;;;;;1.70;0.80;;;17.30;98.20;;;;;;5090692;28;20439;-68
2021/08/08 07:03:21;;;;;;;1.70;0.80;;;17.40;98.00;;;;;;5092527;28;20437;-69
2021/08/08 07:05:48;;;;;;;1.93;0.90;;;17.50;98.40;;;;;;5093726;28;20506;-68
2021/08/08 07:08:16;;;;;;;2.23;1.30;;;17.60;98.20;;;;;;5093766;28;20864;-68
2021/08/08 07:10:43;;;;;;;2.97;1.30;;;17.70;97.90;;;;;;5092043;28;20528;-67
2021/08/08 07:13:10;;;;;;;2.13;0.90;;;17.70;98.00;;;;;;5093175;28;20916;-67
2021/08/08 07:15:36;;;;;;;1.80;1.07;;;17.70;98.20;;;;;;5093569;28;20763;-69
2021/08/08 07:18:04;;;;;;;2.47;0.80;;;17.80;98.20;;;;;;5090079;28;20518;-68
2021/08/08 07:20:31;;;;;;;2.63;1.57;;;17.80;98.10;;;;;;5094058;28;20534;-68
2021/08/08 07:22:58;;;;;;;4.10;1.87;;;17.80;97.80;;;;;;5093826;28;20518;-68
2021/08/08 07:25:26;;;;;;;4.37;1.73;;;17.90;97.50;;;;;;5093368;28;21043;-68
2021/08/08 07:27:53;;;;;;;3.70;2.00;;;17.90;97.50;;;;;;5090167;28;20849;-68
2021/08/08 07:30:20;;;;;;;2.90;1.70;;;17.90;97.60;;;;;;5094145;28;20530;-68
2021/08/08 07:32:47;;;;;;;6.40;2.97;;;18.00;97.40;;;;;;5092501;28;20530;-68
2021/08/08 07:35:13;;;;;;;2.70;1.47;;;18.00;97.20;;;;;;5093154;28;20985;-69
2021/08/08 07:37:40;;;;;;;3.73;2.00;;;18.10;96.20;;;;;;5093478;28;20522;-68
2021/08/08 07:40:09;;;;;;;2.00;1.20;;;18.10;95.80;;;;;;5093873;28;20550;-68
2021/08/08 07:42:37;;;;;;;2.43;1.00;;;18.20;96.10;;;;;;5093662;28;20506;-68
2021/08/08 07:45:04;;;;;;;2.60;1.50;;;18.30;96.70;;;;;;5093199;28;20521;-69
2021/08/08 07:47:31;;;;;;;2.80;1.47;;;18.40;96.50;;;;;;5093010;28;20569;-68
2021/08/08 07:49:58;;;;;;;4.53;1.67;;;18.40;96.60;;;;;;5093144;28;20458;-69
2021/08/08 07:52:25;;;;;;;2.40;1.10;;;18.60;96.10;;;;;;5093565;28;20512;-68
2021/08/08 07:54:52;;;;;;;3.50;1.70;;;18.70;95.60;;;;;;5092742;28;20449;-68
2021/08/08 07:57:19;;;;;;;3.70;1.50;;;18.70;95.50;;;;;;5092312;28;20443;-69
2021/08/08 07:59:48;;;;;;;3.53;1.00;;;18.90;95.90;;;;;;5092916;28;20442;-68
2021/08/08 08:02:15;;;;;;;7.20;3.13;;;18.90;95.20;;;;;;5093247;28;20528;-70
2021/08/08 08:04:44;;;;;;;6.80;2.03;;;19.00;95.90;;;;;;5091802;28;20438;-68
2021/08/08 08:07:14;;;;;;;2.83;1.00;;;19.10;96.10;;;;;;5093141;28;20529;-68
2021/08/08 08:09:41;;;;;;;3.43;3.13;;;19.20;94.90;;;;;;5089097;28;21420;-70
2021/08/08 08:12:08;;;;;;;3.30;2.07;;;19.30;95.10;;;;;;5085943;28;21033;-68
2021/08/08 08:14:35;;;;;;;2.40;1.37;;;19.20;94.80;;;;;;5091826;28;20443;-67
2021/08/08 08:17:04;;;;;;;3.10;1.20;;;19.30;95.00;;;;;;5092369;28;20494;-68
2021/08/08 08:19:32;;;;;;;2.80;1.10;;;19.40;93.60;;;;;;5092256;28;20435;-68
2021/08/08 08:21:59;;;;;;;4.87;1.50;;;19.30;93.50;;;;;;5091490;28;20435;-68
2021/08/08 08:24:26;;;;;;;2.10;1.17;;;19.30;93.60;;;;;;5092653;28;20488;-68
2021/08/08 08:26:53;;;;;;;4.07;2.27;;;19.30;93.70;;;;;;5091847;28;20540;-68
2021/08/08 08:29:21;;;;;;;4.80;3.13;;;19.20;92.90;;;;;;5092601;28;20427;-70
2021/08/08 08:31:48;;;;;;;3.77;1.37;;;19.10;93.00;;;;;;5092373;28;20441;-68
2021/08/08 08:34:17;;;;;;;2.30;0.83;;;19.10;93.10;;;;;;5092580;28;20485;-68
2021/08/08 08:36:44;;;;;;;2.47;0.70;;;19.00;92.30;;;;;;5091894;28;20435;-67
2021/08/08 08:39:11;;;;;;;2.13;0.80;;;18.90;91.90;;;;;;5091879;28;20478;-70
2021/08/08 08:41:38;;;;;;;1.80;1.03;;;18.90;92.50;;;;;;5092108;28;20445;-68
2021/08/08 08:44:06;;;;;;;2.17;0.80;;;19.00;92.40;;;;;;5092410;28;20446;-68
2021/08/08 08:46:34;;;;;;;5.00;2.17;;;19.10;92.20;;;;;;5092083;28;20552;-68
2021/08/08 08:49:02;;;;;;;1.93;0.80;;;19.20;92.80;;;;;;5091893;28;20460;-68
2021/08/08 08:51:36;;;;;;;2.37;0.90;;;19.40;92.50;;;;;;5091944;28;20799;-68
2021/08/08 08:54:04;;;;;;;1.57;0.70;;;19.40;92.80;;;;;;5092029;28;20942;-68
2021/08/08 08:56:32;;;;;;;1.80;1.17;;;19.60;93.20;;;;;;5091738;28;20929;-68
2021/08/08 08:58:59;;;;;;;2.90;1.10;;;19.80;93.50;;;;;;5091644;28;20447;-68
2021/08/08 09:01:26;;;;;;;3.47;1.07;;;20.00;92.90;;;;;;5092039;28;20446;-67
2021/08/08 09:03:54;;;;;;;5.27;3.10;;;20.20;92.60;;;;;;5091537;28;20937;-67
2021/08/08 09:06:21;;;;;;;1.67;0.77;;;20.20;91.60;;;;;;5091723;28;20555;-68
2021/08/08 09:08:49;;;;;;;4.13;2.07;;;20.20;91.50;;;;;;5090838;28;20442;-69
2021/08/08 09:11:16;;;;;;;3.17;2.03;;;20.30;91.90;;;;;;5091625;28;20439;-68
2021/08/08 09:13:53;;;;;;;2.33;0.80;;;20.40;91.90;;;;;;5091090;28;20467;-68
2021/08/08 09:16:22;;;;;;;2.40;1.00;;;20.40;91.10;;;;;;5091702;28;20430;-67
2021/08/08 09:18:51;;;;;;;4.03;0.90;;;20.40;91.00;;;;;;5091383;28;20926;-68
2021/08/08 09:21:19;;;;;;;2.27;0.73;;;20.40;90.70;;;;;;5091287;28;20435;-68
2021/08/08 09:23:53;;;;;;;3.43;1.03;;;20.50;90.20;;;;;;5091237;28;20440;-68
2021/08/08 09:26:31;;;;;;;3.93;1.10;;;20.70;90.90;;;;;;5090121;28;20485;-68
2021/08/08 09:29:09;;;;;;;3.40;1.10;;;20.80;91.00;;;;;;5085354;28;20439;-69
2021/08/08 09:31:44;;;;;;;2.10;0.90;;;21.00;87.40;;;;;;5089440;28;20475;-68
2021/08/08 09:34:22;;;;;;;3.30;1.00;;;21.00;87.00;;;;;;5090556;28;20435;-68
2021/08/08 09:36:50;;;;;;;3.57;1.20;;;21.00;88.70;;;;;;5089307;28;20507;-68
2021/08/08 09:39:29;;;;;;;6.60;3.30;;;21.10;88.80;;;;;;5090546;28;20466;-68
2021/08/08 09:42:11;;;;;;;4.90;2.30;;;21.20;87.80;;;;;;5089161;28;20445;-69
2021/08/08 09:44:49;;;;;;;3.33;2.60;;;21.10;85.70;;;;;;5089861;28;20518;-68
2021/08/08 09:47:16;;;;;;;2.83;1.60;;;21.00;86.50;;;;;;5088864;28;20563;-69
2021/08/08 09:49:43;;;;;;;2.00;0.90;;;21.00;85.80;;;;;;5089439;28;20435;-68
2021/08/08 09:52:10;;;;;;;2.77;1.40;;;20.90;84.40;;;;;;5089299;28;20479;-68
2021/08/08 09:54:39;;;;;;;3.50;1.30;;;20.90;84.30;;;;;;5089934;28;20837;-68
2021/08/08 09:57:06;;;;;;;4.93;1.37;;;21.00;85.50;;;;;;5086956;28;20439;-68
2021/08/08 09:59:34;;;;;;;2.70;1.30;;;21.10;87.10;;;;;;5089654;28;20447;-68
2021/08/08 10:02:01;;;;;;;2.70;0.93;;;21.20;87.80;;;;;;5088796;28;20500;-69
2021/08/08 10:04:33;;;;;;;1.70;1.07;;;21.30;84.50;;;;;;5089293;28;20457;-70
2021/08/08 10:07:03;;;;;;;4.60;1.30;;;21.40;84.80;;;;;;5089751;28;20489;-68
2021/08/08 10:09:32;;;;;;;2.13;0.90;;;21.50;86.20;;;;;;5089573;28;20439;-68
2021/08/08 10:12:08;;;;;;;2.57;1.43;;;21.60;81.60;;;;;;5089795;28;20516;-68
2021/08/08 10:14:35;;;;;;;4.00;1.00;;;21.60;82.40;;;;;;5086921;28;20435;-68
2021/08/08 10:17:02;;;;;;;1.93;0.90;;;21.60;82.40;;;;;;5089657;28;20504;-68
2021/08/08 10:19:30;;;;;;;2.63;0.97;;;21.70;83.30;;;;;;5089604;28;20492;-68
2021/08/08 10:21:57;;;;;;;2.00;1.07;;;21.80;84.00;;;;;;5088432;28;20462;-68
2021/08/08 10:24:25;;;;;;;1.77;1.00;;;22.10;84.90;;;;;;5090303;28;20534;-68
2021/08/08 10:26:52;;;;;;;3.00;1.43;;;22.30;85.40;;;;;;5086193;28;21056;-69
2021/08/08 10:29:22;;;;;;;3.27;1.10;;;22.60;85.40;;;;;;5089185;28;20431;-69
2021/08/08 10:31:50;;;;;;;3.13;1.03;;;22.90;86.40;;;;;;5086630;28;20439;-68
2021/08/08 10:34:28;;;;;;;2.37;0.90;;;23.00;82.80;;;;;;5089731;28;20443;-68
2021/08/08 10:36:55;;;;;;;2.23;0.90;;;23.10;81.40;;;;;;5090438;28;20472;-69
2021/08/08 10:39:22;;;;;;;3.43;1.37;;;23.20;81.50;;;;;;5092587;28;20443;-68
2021/08/08 10:41:57;;;;;;;2.13;0.90;;;23.40;78.90;;;;;;5093827;28;20496;-68
2021/08/08 10:44:26;;;;;;;3.50;1.47;;;23.90;76.70;;;;;;5093442;28;20460;-68
2021/08/08 10:46:55;;;;;;;2.07;0.70;;;24.40;77.60;;;;;;5091852;28;20475;-68
2021/08/08 10:49:28;;;;;;;2.20;0.80;;;25.00;75.80;;;;;;5093634;28;20440;-68
2021/08/08 10:52:00;;;;;;;2.23;1.10;;;25.70;75.40;;;;;;5092859;28;20444;-69
2021/08/08 10:54:27;;;;;;;3.20;1.27;;;26.40;72.60;;;;;;5093421;28;20437;-69
2021/08/08 10:56:55;;;;;;;2.47;0.90;;;26.80;67.20;;;;;;5092892;28;20443;-68
2021/08/08 10:59:24;;;;;;;4.13;1.00;;;27.20;66.10;;;;;;5093063;28;20441;-68
2021/08/08 11:02:08;;;;;;;2.90;1.93;;;27.60;65.50;;;;;;5092919;28;20447;-68
2021/08/08 11:04:35;;;;;;;2.70;0.93;;;27.90;64.00;;;;;;5094312;28;20431;-68
2021/08/08 11:07:04;;;;;;;6.57;1.43;;;28.10;60.20;;;;;;5094305;28;20828;-68
2021/08/08 11:09:31;;;;;;;2.00;0.90;;;28.30;59.30;;;;;;5094663;28;20450;-69
2021/08/08 11:11:59;;;;;;;2.27;1.00;;;28.10;56.20;;;;;;5092399;28;20443;-68
2021/08/08 11:14:28;;;;;;;2.10;1.00;;;27.80;56.90;;;;;;5094573;28;20819;-68
2021/08/08 11:17:03;;;;;;;3.80;0.93;;;27.60;56.60;;;;;;5091746;28;20436;-68
2021/08/08 11:19:35;;;;;;;1.97;0.70;;;27.20;55.70;;;;;;5092863;28;20921;-68
2021/08/08 11:22:14;;;;;;;2.07;0.70;;;26.80;56.60;;;;;;5089850;28;20439;-68
2021/08/08 11:24:43;;;;;;;2.27;0.80;;;26.50;55.90;;;;;;5091551;28;20917;-68
2021/08/08 11:27:11;;;;;;;1.70;0.80;;;26.10;56.00;;;;;;5092043;28;20459;-68
2021/08/08 11:29:40;;;;;;;2.50;0.97;;;25.70;57.20;;;;;;5093493;28;20436;-68
2021/08/08 11:32:08;;;;;;;2.60;1.10;;;25.30;58.20;;;;;;5094335;28;20449;-68
2021/08/08 11:34:36;;;;;;;2.10;1.00;;;25.00;59.20;;;;;;5094402;28;20453;-68
2021/08/08 11:37:03;;;;;;;3.17;0.93;;;24.60;58.70;;;;;;5094350;28;20526;-68
2021/08/08 11:39:32;;;;;;;5.53;1.27;;;24.30;58.80;;;;;;5094336;28;20489;-68
2021/08/08 11:42:05;;;;;;;5.30;0.83;;;24.00;59.10;;;;;;5094678;28;20455;-68
2021/08/08 11:44:41;;;;;;;2.53;0.80;;;23.60;59.60;;;;;;5094398;28;20768;-68
2021/08/08 11:47:09;;;;;;;3.40;1.10;;;23.40;60.00;;;;;;5093944;28;20562;-68
2021/08/08 11:49:46;;;;;;;2.67;0.90;;;23.10;60.70;;;;;;5093335;28;20522;-68
2021/08/08 11:52:16;;;;;;;4.60;1.53;;;22.80;61.00;;;;;;5094259;28;20450;-68
2021/08/08 11:54:43;;;;;;;3.40;1.47;;;22.60;62.60;;;;;;5094302;28;20474;-68
2021/08/08 11:57:10;;;;;;;3.67;0.90;;;22.40;64.30;;;;;;5093975;28;20534;-68
2021/08/08 11:59:39;;;;;;;2.20;1.10;;;22.30;64.80;;;;;;5094026;28;20431;-68
2021/08/08 12:02:08;;;;;;;4.23;1.50;;;22.20;64.90;;;;;;5094219;28;20518;-67
2021/08/08 12:04:36;;;;;;;11.80;8.67;;;22.10;64.80;;;;;;5094077;28;20533;-68
2021/08/08 12:07:07;;;;;;;9.47;6.27;;;22.10;66.00;;;;;;5093957;28;21134;-68
2021/08/08 12:09:34;;;;;;;3.97;2.03;;;22.00;66.60;;;;;;5093919;28;20492;-68
2021/08/08 12:12:03;;;;;;;2.50;1.50;;;22.00;67.10;;;;;;5093944;28;20844;-68
2021/08/08 12:14:33;;;;;;;2.20;1.30;;;22.00;67.50;;;;;;5093636;28;21012;-69
2021/08/08 12:17:06;;;;;;;2.70;1.20;;;21.90;68.70;;;;;;5089850;28;20431;-68
2021/08/08 12:19:35;;;;;;;4.70;1.07;;;22.00;69.00;;;;;;5090421;28;20906;-68
2021/08/08 12:22:04;;;;;;;4.20;1.20;;;22.00;69.90;;;;;;5089883;28;20438;-68
2021/08/08 12:24:36;;;;;;;4.00;1.27;;;22.00;67.50;;;;;;5089595;28;20761;-68
2021/08/08 12:27:04;;;;;;;2.37;1.20;;;22.00;69.20;;;;;;5089582;28;20477;-68
2021/08/08 12:29:33;;;;;;;3.10;1.10;;;22.00;69.80;;;;;;5089619;28;20518;-68
2021/08/08 12:32:13;;;;;;;1.77;0.90;;;22.00;68.90;;;;;;5093777;28;20533;-68
2021/08/08 12:34:41;;;;;;;3.00;1.00;;;22.00;69.20;;;;;;5093622;28;20866;-67
2021/08/08 12:37:10;;;;;;;3.73;1.70;;;22.10;68.60;;;;;;5093285;28;20537;-68
2021/08/08 12:39:39;;;;;;;3.43;2.07;;;22.10;67.00;;;;;;5090167;28;20443;-68
2021/08/08 12:42:20;;;;;;;3.83;1.13;;;22.10;67.00;;;;;;5090042;28;20534;-68
2021/08/08 12:44:48;;;;;;;4.20;0.90;;;22.20;67.10;;;;;;5091336;28;20518;-68
2021/08/08 12:47:25;;;;;;;2.70;1.10;;;22.20;66.50;;;;;;5092498;28;20514;-67
2021/08/08 12:49:52;;;;;;;3.17;0.90;;;22.10;67.10;;;;;;5093093;28;20525;-68
2021/08/08 12:52:19;;;;;;;2.10;1.10;;;22.10;68.10;;;;;;5093054;28;20506;-67
2021/08/08 12:54:46;;;;;;;3.23;1.00;;;22.10;67.90;;;;;;5093141;28;20450;-68